Time;durP1;ratioP1;P1;durP2;ratioP2;P2;SDS_P1;SDS_P2;PMS_P1;PMS_P2;Temp;Humidity;BMP_temperature;BMP_pressure;BME280_temperature;BME280_humidity;BME280_pressure;Samples;Min_cycle;Max_cycle;Signal;HPM_P1;HPM_P2
2022/03/12 00:00:08;;;;;;;11.38;5.28;;;;;;;10.51;46.15;101233.22;5100435;27;97995;-36
2022/03/12 00:02:34;;;;;;;8.30;4.07;;;;;;;10.48;46.17;101230.69;5100543;27;101155;-36
2022/03/12 00:05:00;;;;;;;10.68;5.80;;;;;;;10.53;46.23;101234.03;5100420;27;96685;-36
2022/03/12 00:07:27;;;;;;;11.15;4.53;;;;;;;10.48;46.05;101247.81;5082084;27;96853;-37
2022/03/12 00:09:54;;;;;;;15.20;6.32;;;;;;;10.47;46.16;101235.25;5099762;27;98014;-36
2022/03/12 00:12:21;;;;;;;9.15;4.63;;;;;;;10.45;46.31;101239.88;5081622;27;100974;-36
2022/03/12 00:14:48;;;;;;;10.32;4.57;;;;;;;10.47;46.27;101247.94;5082167;27;96675;-36
2022/03/12 00:17:15;;;;;;;9.45;4.45;;;;;;;10.47;46.33;101253.34;5082131;27;96931;-36
2022/03/12 00:19:42;;;;;;;13.50;4.75;;;;;;;10.39;46.64;101249.22;5081494;27;98946;-37
2022/03/12 00:22:09;;;;;;;15.68;6.03;;;;;;;10.44;46.71;101257.09;5081400;27;100803;-37
2022/03/12 00:24:35;;;;;;;12.20;5.65;;;;;;;10.42;46.54;101248.19;5081880;27;96667;-37
2022/03/12 00:27:01;;;;;;;7.72;4.40;;;;;;;10.44;46.73;101259.81;5100720;27;96845;-37
2022/03/12 00:29:27;;;;;;;9.88;4.82;;;;;;;10.45;46.71;101268.78;5099905;27;99465;-36
2022/03/12 00:31:54;;;;;;;8.95;4.25;;;;;;;10.43;46.78;101268.00;5081324;27;99051;-36
2022/03/12 00:34:19;;;;;;;9.45;4.78;;;;;;;10.37;46.87;101261.09;5081154;27;96535;-37
2022/03/12 00:36:46;;;;;;;11.05;5.38;;;;;;;10.39;46.94;101262.75;5081387;27;96630;-36
2022/03/12 00:39:13;;;;;;;9.77;4.93;;;;;;;10.39;48.50;101264.56;5081083;27;100854;-37
2022/03/12 00:41:39;;;;;;;10.90;5.15;;;;;;;10.35;49.10;101276.53;5099801;27;99113;-36
2022/03/12 00:44:06;;;;;;;14.90;6.28;;;;;;;10.21;50.89;101271.81;5081493;27;97132;-37
2022/03/12 00:46:31;;;;;;;10.15;5.07;;;;;;;10.27;51.02;101278.75;5081546;27;96905;-36
2022/03/12 00:48:57;;;;;;;9.93;5.45;;;;;;;10.16;52.52;101279.31;5099785;27;97955;-36
2022/03/12 00:51:23;;;;;;;9.98;4.82;;;;;;;10.06;52.01;101280.75;5081406;27;100883;-36
2022/03/12 00:53:48;;;;;;;9.43;4.50;;;;;;;9.98;54.86;101275.75;5100097;27;96531;-36
2022/03/12 00:56:13;;;;;;;13.13;5.75;;;;;;;10.00;52.85;101287.38;5099982;27;96790;-36
2022/03/12 00:58:39;;;;;;;10.15;4.15;;;;;;;9.98;53.89;101300.97;5099084;27;97440;-36
2022/03/12 01:01:06;;;;;;;9.23;4.13;;;;;;;9.92;55.15;101290.47;5099270;27;97789;-36
2022/03/12 01:03:32;;;;;;;10.57;4.50;;;;;;;9.91;54.98;101295.97;5081178;27;96816;-37
2022/03/12 01:05:59;;;;;;;8.20;4.13;;;;;;;9.90;56.43;101288.81;5099778;27;96887;-37
2022/03/12 01:08:27;;;;;;;7.75;4.38;;;;;;;9.87;57.04;101294.38;5080546;27;101063;-36
2022/03/12 01:10:55;;;;;;;8.40;4.65;;;;;;;9.90;55.93;101283.41;5080570;27;101125;-36
2022/03/12 01:13:23;;;;;;;9.52;4.75;;;;;;;9.91;54.90;101287.84;5081223;27;96677;-36
2022/03/12 01:15:49;;;;;;;8.85;5.07;;;;;;;9.88;54.82;101288.88;5081287;27;96810;-36
2022/03/12 01:18:17;;;;;;;9.13;4.22;;;;;;;9.86;55.84;101287.19;5080571;27;101000;-36
2022/03/12 01:20:43;;;;;;;7.47;3.92;;;;;;;9.89;58.75;101297.84;5080641;27;100728;-36
2022/03/12 01:23:13;;;;;;;9.57;4.82;;;;;;;9.92;57.02;101303.13;5080531;27;96708;-36
2022/03/12 01:25:40;;;;;;;12.45;5.15;;;;;;;9.91;57.05;101295.97;5080800;27;96780;-37
2022/03/12 01:28:08;;;;;;;11.73;5.15;;;;;;;9.76;58.37;101276.84;5080325;27;101006;-36
2022/03/12 01:30:34;;;;;;;8.88;4.63;;;;;;;9.87;56.21;101297.09;5080351;27;100755;-36
2022/03/12 01:32:59;;;;;;;10.57;4.30;;;;;;;9.85;57.16;101294.44;5080787;27;96646;-37
2022/03/12 01:35:25;;;;;;;9.80;4.68;;;;;;;9.85;56.89;101294.44;5099420;27;96864;-36
2022/03/12 01:37:51;;;;;;;8.45;4.68;;;;;;;9.85;56.66;101302.56;5098946;27;97441;-36
2022/03/12 01:40:16;;;;;;;8.20;4.50;;;;;;;9.84;57.83;101300.78;5099742;27;96897;-36
2022/03/12 01:42:43;;;;;;;7.80;3.90;;;;;;;9.82;56.59;101285.59;5099576;27;96536;-37
2022/03/12 01:45:10;;;;;;;6.00;3.92;;;;;;;9.75;56.64;101279.66;5099140;27;96808;-36
2022/03/12 01:47:35;;;;;;;7.28;4.30;;;;;;;9.80;56.53;101291.13;5079455;27;101000;-36
2022/03/12 01:50:02;;;;;;;7.30;4.13;;;;;;;9.73;57.67;101293.25;5080433;27;100727;-36
2022/03/12 01:52:28;;;;;;;7.55;4.13;;;;;;;9.76;58.16;101303.91;5098361;27;96500;-36
2022/03/12 01:54:55;;;;;;;10.88;4.72;;;;;;;9.78;57.95;101304.69;5080744;27;96927;-37
2022/03/12 01:57:20;;;;;;;9.38;4.13;;;;;;;9.79;60.00;101302.88;5098461;27;97989;-36
2022/03/12 01:59:45;;;;;;;11.35;4.68;;;;;;;9.79;58.04;101298.31;5098678;27;97243;-36
2022/03/12 02:02:13;;;;;;;9.50;4.85;;;;;;;9.74;61.09;101296.81;5099153;27;96527;-36
2022/03/12 02:04:39;;;;;;;6.03;2.53;;;;;;;9.79;62.12;101302.88;5098395;27;96714;-36
2022/03/12 02:07:05;;;;;;;6.75;3.15;;;;;;;9.86;61.09;101311.56;5098521;27;97997;-36
2022/03/12 02:09:30;;;;;;;8.32;4.18;;;;;;;9.88;59.98;101307.81;5098316;27;99530;-36
2022/03/12 02:11:55;;;;;;;9.52;4.05;;;;;;;9.86;60.54;101303.44;5098711;27;96688;-36
2022/03/12 02:14:22;;;;;;;7.22;3.55;;;;;;;9.89;58.36;101306.88;5097762;27;112585;-36
2022/03/12 02:16:58;;;;;;;10.05;4.55;;;;;;;9.89;58.81;101308.69;5079688;27;100928;-37
2022/03/12 02:19:26;;;;;;;6.97;3.90;;;;;;;9.87;59.54;101310.63;5079698;27;101284;-36
2022/03/12 02:22:07;;;;;;;8.77;3.53;;;;;;;9.80;59.49;101299.22;5098695;27;96653;-36
2022/03/12 02:24:34;;;;;;;10.57;4.38;;;;;;;9.89;58.34;101322.22;5098733;27;96814;-36
2022/03/12 02:27:02;;;;;;;9.77;4.22;;;;;;;9.82;59.45;101309.94;5098260;27;97341;-36
2022/03/12 02:29:27;;;;;;;8.90;3.70;;;;;;;9.87;58.67;101325.03;5080029;27;100765;-36
2022/03/12 02:32:01;;;;;;;7.78;3.67;;;;;;;9.90;58.84;101323.97;5098749;27;96516;-36
2022/03/12 02:34:38;;;;;;;7.35;2.97;;;;;;;9.86;60.71;101311.56;5098699;27;96601;-36
2022/03/12 02:37:04;;;;;;;9.68;5.43;;;;;;;9.82;59.57;101307.25;5097293;27;97908;-36
2022/03/12 02:39:30;;;;;;;6.28;3.58;;;;;;;9.86;59.57;101314.25;5098054;27;98903;-36
2022/03/12 02:41:56;;;;;;;7.25;3.72;;;;;;;9.75;59.63;101302.16;5098713;27;96555;-36
2022/03/12 02:44:24;;;;;;;7.13;3.70;;;;;;;9.82;60.15;101316.25;5098639;27;96754;-36
2022/03/12 02:47:16;;;;;;;7.18;3.58;;;;;;;9.81;59.83;101310.91;5079250;27;100922;-36
2022/03/12 02:49:48;;;;;;;5.13;3.20;;;;;;;9.83;59.17;101326.13;5086824;27;97898;-36
2022/03/12 02:52:14;;;;;;;6.00;3.33;;;;;;;9.78;61.23;101306.53;5079892;27;96687;-36
2022/03/12 02:54:41;;;;;;;7.78;3.72;;;;;;;9.76;60.39;101314.72;5080068;27;96590;-36
2022/03/12 02:57:06;;;;;;;6.88;3.67;;;;;;;9.74;61.50;101313.91;5079332;27;101048;-37
2022/03/12 02:59:33;;;;;;;4.78;3.35;;;;;;;9.77;60.92;101318.28;5079227;27;100746;-37
2022/03/12 03:02:02;;;;;;;5.50;2.88;;;;;;;9.72;63.54;101313.13;5079298;27;96756;-37
2022/03/12 03:04:30;;;;;;;6.43;3.03;;;;;;;9.82;63.73;101326.19;5061142;27;96884;-36
2022/03/12 03:07:00;;;;;;;5.35;2.55;;;;;;;9.79;64.65;101322.69;5080607;27;99268;-37
2022/03/12 03:09:26;;;;;;;6.13;2.50;;;;;;;9.88;62.57;101326.75;5080689;27;97890;-36
2022/03/12 03:11:53;;;;;;;4.53;1.83;;;;;;;9.91;65.46;101331.13;5080053;27;96521;-37
2022/03/12 03:14:18;;;;;;;4.88;1.80;;;;;;;9.93;66.13;101334.63;5079737;27;96780;-37
2022/03/12 03:16:46;;;;;;;3.90;2.03;;;;;;;9.94;63.67;101339.97;5080501;27;97872;-36
2022/03/12 03:19:12;;;;;;;2.78;1.55;;;;;;;9.96;65.22;101339.88;5080975;27;97946;-36
2022/03/12 03:21:37;;;;;;;3.63;2.08;;;;;;;9.91;63.61;101328.44;5081172;27;96517;-36
2022/03/12 03:24:05;;;;;;;2.67;1.65;;;;;;;9.90;65.92;101326.69;5079508;27;96853;-37
2022/03/12 03:26:33;;;;;;;6.25;2.17;;;;;;;9.99;67.86;101334.34;5078389;27;101155;-36
2022/03/12 03:28:58;;;;;;;4.95;2.03;;;;;;;9.97;66.62;101339.81;5079996;27;102977;-36
2022/03/12 03:31:23;;;;;;;2.83;1.25;;;;;;;9.94;68.35;101328.28;5079905;27;112503;-36
2022/03/12 03:33:49;;;;;;;2.08;1.38;;;;;;;10.01;68.05;101345.97;5080091;27;107108;-36
2022/03/12 03:36:14;;;;;;;3.85;1.60;;;;;;;10.01;66.81;101340.56;5079856;27;99299;-36
2022/03/12 03:38:39;;;;;;;2.65;1.58;;;;;;;10.00;67.35;101346.91;5079671;27;114781;-36
2022/03/12 03:41:05;;;;;;;1.23;0.90;;;;;;;9.93;68.43;101330.09;5080731;27;96449;-36
2022/03/12 03:43:31;;;;;;;3.20;1.38;;;;;;;9.93;67.24;101342.75;5081332;27;96806;-36
2022/03/12 03:45:57;;;;;;;1.63;1.10;;;;;;;9.89;68.42;101335.75;5079377;27;114469;-36
2022/03/12 03:48:24;;;;;;;3.22;1.50;;;;;;;9.83;69.24;101341.47;5078691;27;100680;-36
2022/03/12 03:50:51;;;;;;;1.77;0.88;;;;;;;9.91;66.61;101352.78;5078707;27;96564;-36
2022/03/12 03:53:19;;;;;;;2.30;1.35;;;;;;;9.84;68.62;101351.34;5079073;27;96913;-36
2022/03/12 03:55:45;;;;;;;4.43;1.33;;;;;;;9.83;69.41;101357.72;5078533;27;100762;-36
2022/03/12 03:58:15;;;;;;;4.10;1.90;;;;;;;9.81;68.49;101352.38;5079640;27;99419;-37
2022/03/12 04:00:53;;;;;;;2.30;1.27;;;;;;;9.76;69.11;101355.31;5080699;27;96568;-37
2022/03/12 04:03:19;;;;;;;2.15;1.25;;;;;;;9.78;68.24;101360.66;5080284;27;96870;-36
2022/03/12 04:05:45;;;;;;;3.67;1.83;;;;;;;9.67;67.32;101355.75;5078103;27;100820;-36
2022/03/12 04:08:10;;;;;;;1.60;1.08;;;;;;;9.72;68.48;101369.94;5079829;27;105044;-36
2022/03/12 04:10:36;;;;;;;2.22;1.42;;;;;;;9.63;67.98;101348.78;5080069;27;96583;-36
2022/03/12 04:13:09;;;;;;;2.30;1.10;;;;;;;9.65;70.03;101363.06;5078720;27;97345;-37
2022/03/12 04:15:37;;;;;;;2.10;1.20;;;;;;;9.63;70.27;101365.00;5077374;27;100665;-36
2022/03/12 04:18:04;;;;;;;2.55;1.60;;;;;;;9.61;69.48;101361.50;5079439;27;99183;-37
2022/03/12 04:20:30;;;;;;;2.22;1.23;;;;;;;9.60;67.95;101359.72;5078723;27;96807;-37
2022/03/12 04:22:55;;;;;;;1.15;0.73;;;;;;;9.62;69.19;101373.19;5080171;27;96723;-36
2022/03/12 04:25:21;;;;;;;5.05;1.60;;;;;;;9.60;70.69;101381.34;5079402;27;97226;-36
2022/03/12 04:27:47;;;;;;;2.03;1.08;;;;;;;9.52;68.78;101359.22;5078083;27;100728;-37
2022/03/12 04:30:15;;;;;;;2.72;1.13;;;;;;;9.62;68.20;101378.59;5078563;27;96646;-37
2022/03/12 04:32:42;;;;;;;1.77;0.57;;;;;;;9.60;70.76;101389.47;5080227;27;96767;-36
2022/03/12 04:35:08;;;;;;;1.38;1.00;;;;;;;9.55;70.47;101383.41;5077519;27;100962;-37
2022/03/12 04:37:34;;;;;;;1.48;1.10;;;;;;;9.53;70.01;101380.81;5079132;27;99962;-36
2022/03/12 04:40:02;;;;;;;1.00;0.70;;;;;;;9.53;70.59;101377.19;5077543;27;96816;-36
2022/03/12 04:42:27;;;;;;;1.73;0.82;;;;;;;9.54;69.99;101390.66;5079695;27;96753;-36
2022/03/12 04:44:53;;;;;;;2.60;1.08;;;;;;;9.56;70.29;101402.28;5078408;27;120778;-36
2022/03/12 04:47:19;;;;;;;1.98;1.17;;;;;;;9.52;71.43;101384.44;5078697;27;113430;-36
2022/03/12 04:49:45;;;;;;;2.00;0.98;;;;;;;9.55;70.11;101396.94;5078181;27;96539;-37
2022/03/12 04:52:11;;;;;;;1.85;1.00;;;;;;;9.51;71.06;101392.63;5078179;27;96875;-36
2022/03/12 04:54:37;;;;;;;2.22;1.15;;;;;;;9.49;69.71;101392.72;5077340;27;100968;-37
2022/03/12 04:57:03;;;;;;;2.90;1.20;;;;;;;9.47;70.29;101397.31;5079278;27;99296;-36
2022/03/12 04:59:28;;;;;;;2.33;0.93;;;;;;;9.49;71.29;101408.94;5077977;27;96492;-37
2022/03/12 05:01:54;;;;;;;2.03;1.20;;;;;;;9.49;69.17;101408.06;5079624;27;96699;-36
2022/03/12 05:04:19;;;;;;;1.92;1.35;;;;;;;9.45;70.88;101410.03;5083943;27;99611;-36
2022/03/12 05:06:44;;;;;;;3.13;1.58;;;;;;;9.39;70.79;101404.94;5099580;27;97846;-36
2022/03/12 05:09:10;;;;;;;2.28;1.00;;;;;;;9.39;72.17;101395.91;5100078;27;96719;-36
2022/03/12 05:11:38;;;;;;;2.72;1.30;;;;;;;9.38;70.75;101405.88;5099917;27;96849;-36
2022/03/12 05:14:04;;;;;;;1.38;0.73;;;;;;;9.34;70.50;101398.84;5099324;27;99291;-37
2022/03/12 05:16:32;;;;;;;2.42;1.58;;;;;;;9.40;71.80;101411.22;5080570;27;101185;-36
2022/03/12 05:18:58;;;;;;;1.58;1.08;;;;;;;9.39;71.04;101425.66;5099753;27;96420;-36
2022/03/12 05:21:23;;;;;;;3.00;1.05;;;;;;;9.38;70.53;101429.31;5099960;27;96880;-36
2022/03/12 05:23:49;;;;;;;3.20;1.27;;;;;;;9.28;70.65;101416.25;5080354;27;100832;-36
2022/03/12 05:26:14;;;;;;;2.72;1.80;;;;;;;9.20;70.80;101399.50;5097452;27;126785;-36
2022/03/12 05:28:40;;;;;;;6.88;2.00;;;;;;;9.22;71.43;101403.00;5099139;27;96533;-36
2022/03/12 05:31:08;;;;;;;1.70;1.05;;;;;;;9.26;71.93;101418.13;5081008;27;96866;-37
2022/03/12 05:33:34;;;;;;;1.33;0.90;;;;;;;9.24;73.12;101424.56;5080305;27;100753;-37
2022/03/12 05:36:00;;;;;;;1.63;1.30;;;;;;;9.21;71.75;101428.28;5080067;27;101410;-36
2022/03/12 05:38:29;;;;;;;1.45;0.98;;;;;;;9.18;72.08;101424.88;5099436;27;96501;-36
2022/03/12 05:40:55;;;;;;;1.88;0.95;;;;;;;9.19;72.12;101430.19;5080841;27;96857;-37
2022/03/12 05:43:21;;;;;;;1.85;1.00;;;;;;;9.13;71.18;101431.34;5098740;27;99194;-36
2022/03/12 05:45:48;;;;;;;1.38;1.00;;;;;;;9.10;73.07;101425.19;5099154;27;98015;-37
2022/03/12 05:48:15;;;;;;;1.42;1.15;;;;;;;9.09;71.58;101416.22;5080626;27;96666;-36
2022/03/12 05:50:43;;;;;;;2.42;1.33;;;;;;;9.17;71.83;101428.50;5080532;27;96906;-36
2022/03/12 05:53:09;;;;;;;2.15;0.95;;;;;;;9.12;72.65;101426.00;5079620;27;100885;-36
2022/03/12 05:55:38;;;;;;;2.03;1.08;;;;;;;9.14;72.53;101429.53;5098638;27;97805;-36
2022/03/12 05:58:04;;;;;;;1.23;0.95;;;;;;;9.08;72.54;101421.69;5099120;27;96607;-36
2022/03/12 06:00:30;;;;;;;2.83;1.48;;;;;;;9.04;71.09;101422.78;5099013;27;96878;-37
2022/03/12 06:02:56;;;;;;;3.65;2.00;;;;;;;9.07;72.96;101442.44;5098738;27;97994;-36
2022/03/12 06:05:24;;;;;;;2.70;1.48;;;;;;;9.16;71.46;101457.34;5097833;27;99290;-36
2022/03/12 06:07:50;;;;;;;2.65;1.00;;;;;;;9.20;71.61;101460.78;5080343;27;96601;-37
2022/03/12 06:10:21;;;;;;;0.88;0.55;;;;;;;9.12;72.42;101439.53;5080795;27;97113;-37
2022/03/12 06:12:48;;;;;;;2.58;1.20;;;;;;;9.19;71.21;101448.22;5062894;27;100987;-36
2022/03/12 06:15:16;;;;;;;1.55;1.17;;;;;;;9.17;70.83;101444.72;5080000;27;101058;-36
2022/03/12 06:17:42;;;;;;;5.72;0.70;;;;;;;9.21;71.73;101465.25;5079740;27;96544;-36
2022/03/12 06:20:10;;;;;;;1.38;1.10;;;;;;;9.20;71.91;101466.19;5080176;27;96791;-37
2022/03/12 06:22:36;;;;;;;3.72;1.17;;;;;;;9.16;71.82;101451.94;5079665;27;100996;-36
2022/03/12 06:25:02;;;;;;;2.95;1.65;;;;;;;9.21;72.14;101474.25;5079633;27;101263;-36
2022/03/12 06:27:28;;;;;;;2.92;1.50;;;;;;;9.25;71.89;101475.88;5098537;27;96552;-36
2022/03/12 06:29:55;;;;;;;2.53;1.30;;;;;;;9.24;72.39;101476.78;5099036;27;96713;-36
2022/03/12 06:32:21;;;;;;;1.85;1.13;;;;;;;9.20;71.61;101467.09;5098201;27;97985;-36
2022/03/12 06:34:46;;;;;;;1.52;0.95;;;;;;;9.20;71.75;101472.50;5098631;27;97818;-36
2022/03/12 06:37:12;;;;;;;3.45;2.08;;;;;;;9.27;71.38;101484.78;5098000;27;112483;-36
2022/03/12 06:39:37;;;;;;;3.15;1.92;;;;;;;9.21;72.28;101470.66;5083939;27;96790;-36
2022/03/12 06:42:03;;;;;;;3.53;1.17;;;;;;;9.25;71.14;101475.88;5100481;27;114964;-36
2022/03/12 06:44:32;;;;;;;3.38;1.15;;;;;;;9.15;71.90;101461.00;5082998;27;100811;-37
2022/03/12 06:47:01;;;;;;;2.47;0.98;;;;;;;9.22;72.09;101478.69;5101846;27;96631;-37
2022/03/12 06:49:28;;;;;;;2.67;1.27;;;;;;;9.19;71.68;101478.84;5083409;27;96833;-37
2022/03/12 06:51:54;;;;;;;3.22;1.90;;;;;;;9.24;71.22;101490.31;5101737;27;97961;-36
2022/03/12 06:54:20;;;;;;;3.58;1.90;;;;;;;9.25;71.51;101493.91;5083026;27;100959;-36
2022/03/12 06:56:46;;;;;;;4.00;1.30;;;;;;;9.26;71.80;101498.34;5080618;27;96654;-36
2022/03/12 06:59:12;;;;;;;2.42;1.17;;;;;;;9.21;71.33;101490.47;5098922;27;115561;-37
2022/03/12 07:01:37;;;;;;;2.97;0.98;;;;;;;9.22;72.08;101485.91;5080181;27;100132;-36
2022/03/12 07:04:03;;;;;;;2.38;1.52;;;;;;;9.24;72.48;101493.00;5097426;27;123979;-36
2022/03/12 07:06:28;;;;;;;3.45;1.58;;;;;;;9.30;71.26;101502.69;5098836;27;96504;-37
2022/03/12 07:08:53;;;;;;;2.65;1.42;;;;;;;9.30;72.10;101503.56;5099182;27;96859;-36
2022/03/12 07:11:20;;;;;;;2.05;1.08;;;;;;;9.41;71.43;101524.69;5098395;27;114134;-36
2022/03/12 07:13:45;;;;;;;1.52;1.00;;;;;;;9.44;71.71;101529.06;5080051;27;100812;-37
2022/03/12 07:16:10;;;;;;;1.27;0.90;;;;;;;9.46;72.74;101517.25;5098786;27;96687;-37
2022/03/12 07:18:38;;;;;;;2.25;1.08;;;;;;;9.43;72.42;101519.22;5099217;27;96734;-36
2022/03/12 07:21:03;;;;;;;1.83;0.98;;;;;;;9.46;72.40;101527.16;5098545;27;97898;-36
2022/03/12 07:23:29;;;;;;;4.38;1.25;;;;;;;9.50;71.21;101528.78;5099147;27;97317;-36
2022/03/12 07:25:55;;;;;;;2.90;1.15;;;;;;;9.48;72.11;101533.38;5098394;27;100394;-36
2022/03/12 07:28:21;;;;;;;3.72;1.48;;;;;;;9.54;71.54;101541.25;5098963;27;96744;-36
2022/03/12 07:30:46;;;;;;;1.98;0.80;;;;;;;9.54;71.72;101557.47;5097854;27;97743;-36
2022/03/12 07:33:11;;;;;;;1.60;0.90;;;;;;;9.59;71.44;101563.53;5098529;27;97818;-36
2022/03/12 07:35:37;;;;;;;1.50;1.02;;;;;;;9.55;72.58;101549.25;5098952;27;96921;-37
2022/03/12 07:38:04;;;;;;;1.75;1.17;;;;;;;9.61;72.48;101569.75;5098832;27;96817;-37
2022/03/12 07:40:29;;;;;;;1.75;1.10;;;;;;;9.64;71.71;101563.31;5079722;27;100966;-36
2022/03/12 07:42:55;;;;;;;1.02;0.68;;;;;;;9.60;71.89;101556.28;5098358;27;97915;-36
2022/03/12 07:45:20;;;;;;;2.50;1.60;;;;;;;9.63;71.25;101562.44;5098419;27;96715;-36
2022/03/12 07:47:47;;;;;;;2.53;1.73;;;;;;;9.65;71.60;101575.88;5098909;27;96753;-36
2022/03/12 07:50:13;;;;;;;2.42;1.33;;;;;;;9.63;72.59;101572.38;5078750;27;101172;-36
2022/03/12 07:52:39;;;;;;;2.08;1.25;;;;;;;9.64;71.85;101558.78;5079432;27;101083;-36
2022/03/12 07:55:06;;;;;;;3.60;1.65;;;;;;;9.74;71.35;101581.75;5079251;27;96611;-36
2022/03/12 07:57:31;;;;;;;2.25;1.40;;;;;;;9.79;71.49;101578.84;5079861;27;97109;-37
2022/03/12 07:59:57;;;;;;;1.40;0.90;;;;;;;9.90;72.12;101591.88;5097560;27;99331;-37
2022/03/12 08:02:22;;;;;;;3.35;1.45;;;;;;;9.85;71.16;101581.25;5097068;27;125897;-36
2022/03/12 08:04:47;;;;;;;2.15;1.23;;;;;;;9.92;71.55;101589.97;5097851;27;96738;-36
2022/03/12 08:07:14;;;;;;;2.13;1.23;;;;;;;10.00;70.27;101590.47;5097918;27;96817;-36
2022/03/12 08:09:39;;;;;;;3.03;1.15;;;;;;;10.07;71.31;101591.94;5079170;27;101518;-36
2022/03/12 08:12:06;;;;;;;3.22;1.98;;;;;;;10.14;70.42;101598.81;5098636;27;97236;-36
2022/03/12 08:14:33;;;;;;;1.60;1.08;;;;;;;10.17;70.72;101603.22;5079458;27;96739;-36
2022/03/12 08:16:58;;;;;;;2.47;1.55;;;;;;;10.27;70.00;101612.66;5098072;27;96490;-36
2022/03/12 08:19:24;;;;;;;1.48;1.15;;;;;;;10.27;70.45;101603.66;5097278;27;97972;-36
2022/03/12 08:21:51;;;;;;;5.25;1.38;;;;;;;10.34;70.43;101614.13;5097681;27;99712;-36
2022/03/12 08:24:17;;;;;;;1.67;0.95;;;;;;;10.37;69.88;101618.56;5079520;27;96739;-36
2022/03/12 08:26:44;;;;;;;4.78;1.13;;;;;;;10.34;70.11;101607.84;5079259;27;96888;-36
2022/03/12 08:29:10;;;;;;;2.58;1.40;;;;;;;10.40;70.36;101618.41;5078772;27;100932;-36
2022/03/12 08:31:36;;;;;;;4.10;1.23;;;;;;;10.42;70.36;101619.22;5078911;27;101036;-36
2022/03/12 08:34:03;;;;;;;6.07;1.52;;;;;;;10.38;70.18;101614.88;5079256;27;96810;-36
2022/03/12 08:36:28;;;;;;;1.65;0.90;;;;;;;10.35;70.05;101612.34;5079125;27;96898;-37
2022/03/12 08:38:53;;;;;;;1.40;0.88;;;;;;;10.51;69.31;101629.59;5097162;27;99289;-36
2022/03/12 08:41:21;;;;;;;3.00;1.33;;;;;;;10.50;69.29;101626.94;5097215;27;106520;-36
2022/03/12 08:43:47;;;;;;;1.88;1.27;;;;;;;10.50;69.31;101626.94;5096830;27;96639;-36
2022/03/12 08:46:12;;;;;;;8.77;1.10;;;;;;;10.54;69.08;101640.28;5097590;27;96757;-36
2022/03/12 08:48:39;;;;;;;1.48;0.90;;;;;;;10.55;68.82;101655.56;5097316;27;97364;-36
2022/03/12 08:51:05;;;;;;;1.02;0.73;;;;;;;10.53;68.62;101643.91;5078388;27;100845;-36
2022/03/12 08:53:31;;;;;;;2.63;0.88;;;;;;;10.62;68.45;101654.31;5097697;27;96450;-36
2022/03/12 08:55:57;;;;;;;1.75;0.85;;;;;;;10.60;68.38;101642.66;5097541;27;96793;-36
2022/03/12 08:58:23;;;;;;;2.15;1.30;;;;;;;10.63;68.31;101657.91;5097096;27;98013;-36
2022/03/12 09:00:52;;;;;;;1.27;0.85;;;;;;;10.70;68.40;101658.47;5097418;27;97982;-36
2022/03/12 09:03:19;;;;;;;2.35;1.20;;;;;;;10.73;68.08;101656.50;5078336;27;96892;-36
2022/03/12 09:05:44;;;;;;;1.38;0.85;;;;;;;10.76;68.17;101656.34;5078323;27;96845;-36
2022/03/12 09:08:10;;;;;;;1.98;1.05;;;;;;;10.86;68.05;101645.06;5077759;27;100911;-36
2022/03/12 09:10:36;;;;;;;2.10;1.30;;;;;;;10.85;67.67;101646.91;5096892;27;97812;-36
2022/03/12 09:13:01;;;;;;;2.15;1.27;;;;;;;10.79;67.72;101636.34;5096845;27;96646;-36
2022/03/12 09:15:26;;;;;;;2.10;0.82;;;;;;;10.88;67.26;101635.00;5096490;27;106987;-36
2022/03/12 09:17:52;;;;;;;1.33;0.95;;;;;;;10.95;66.89;101645.47;5096873;27;97607;-36
2022/03/12 09:20:18;;;;;;;2.72;1.40;;;;;;;11.00;66.99;101643.41;5096889;27;97761;-36
2022/03/12 09:22:43;;;;;;;2.35;1.30;;;;;;;10.97;66.53;101635.44;5096881;27;96460;-36
2022/03/12 09:25:11;;;;;;;1.55;1.05;;;;;;;11.11;66.75;101650.09;5097491;27;96812;-36
2022/03/12 09:27:37;;;;;;;2.60;0.63;;;;;;;11.15;66.46;101655.28;5096281;27;98961;-36
2022/03/12 09:30:04;;;;;;;6.25;1.05;;;;;;;11.16;66.27;101645.34;5078059;27;100687;-36
2022/03/12 09:32:29;;;;;;;2.63;1.10;;;;;;;11.09;66.63;101650.19;5077730;27;96516;-36
2022/03/12 09:34:55;;;;;;;1.55;0.90;;;;;;;11.23;66.28;101649.50;5096632;27;96815;-36
2022/03/12 09:37:20;;;;;;;2.38;1.40;;;;;;;11.41;65.69;101648.53;5096047;27;99266;-36
2022/03/12 09:39:46;;;;;;;2.85;1.20;;;;;;;11.57;65.50;101655.88;5077280;27;111974;-36
2022/03/12 09:42:11;;;;;;;1.70;0.82;;;;;;;11.73;65.32;101651.38;5078046;27;96573;-36
2022/03/12 09:44:37;;;;;;;2.58;1.20;;;;;;;11.89;64.57;101659.59;5096460;27;96763;-36
2022/03/12 09:47:02;;;;;;;2.33;1.20;;;;;;;12.04;63.74;101641.63;5096405;27;97423;-36
2022/03/12 09:49:28;;;;;;;4.70;1.25;;;;;;;12.22;62.60;101640.56;5096444;27;99195;-36
2022/03/12 09:51:53;;;;;;;0.70;0.52;;;;;;;12.29;61.72;101660.13;5096747;27;96603;-36
2022/03/12 09:54:18;;;;;;;1.48;0.85;;;;;;;12.27;61.63;101656.63;5096731;27;96866;-36
2022/03/12 09:56:45;;;;;;;0.68;0.50;;;;;;;12.06;62.12;101666.81;5095917;27;97446;-36
2022/03/12 09:59:10;;;;;;;1.13;0.50;;;;;;;11.99;62.82;101673.53;5077465;27;100882;-36
2022/03/12 10:01:35;;;;;;;3.85;0.60;;;;;;;11.77;62.71;101663.81;5060659;27;96556;-36
2022/03/12 10:04:01;;;;;;;2.22;0.93;;;;;;;11.78;63.44;101681.00;5095965;27;96923;-36
2022/03/12 10:06:29;;;;;;;1.40;0.82;;;;;;;11.59;63.21;101673.81;5096289;27;104767;-36
2022/03/12 10:08:55;;;;;;;3.00;0.85;;;;;;;11.56;63.29;101683.94;5077233;27;101042;-36
2022/03/12 10:11:20;;;;;;;1.98;0.85;;;;;;;11.53;63.29;101686.81;5096301;27;96664;-36
2022/03/12 10:13:45;;;;;;;3.75;0.75;;;;;;;11.45;63.04;101688.09;5096236;27;96748;-36
2022/03/12 10:16:11;;;;;;;0.80;0.50;;;;;;;11.38;63.38;101673.09;5096096;27;97887;-36
2022/03/12 10:18:37;;;;;;;1.95;0.93;;;;;;;11.36;63.11;101685.00;5095541;27;99222;-36
2022/03/12 10:21:03;;;;;;;2.22;0.90;;;;;;;11.26;63.05;101674.59;5076858;27;96666;-36
2022/03/12 10:23:28;;;;;;;0.47;0.47;;;;;;;11.45;62.81;101679.09;5077405;27;96854;-36
2022/03/12 10:25:54;;;;;;;5.05;1.00;;;;;;;11.87;61.78;101681.41;5095627;27;97845;-36
2022/03/12 10:28:19;;;;;;;3.55;1.05;;;;;;;12.26;61.21;101684.75;5094933;27;123308;-36
2022/03/12 10:30:45;;;;;;;1.83;0.70;;;;;;;12.52;60.25;101681.47;5095961;27;96549;-37
2022/03/12 10:33:20;;;;;;;1.63;0.82;;;;;;;12.67;58.42;101666.13;5096014;27;96776;-36
2022/03/12 10:35:46;;;;;;;0.90;0.50;;;;;;;12.92;58.30;101675.59;5095266;27;98656;-37
2022/03/12 10:38:12;;;;;;;1.23;0.70;;;;;;;13.22;58.80;101683.78;5077152;27;101509;-36
2022/03/12 10:40:38;;;;;;;0.93;0.52;;;;;;;13.48;56.86;101684.97;5095842;27;96563;-37
2022/03/12 10:43:12;;;;;;;3.95;1.27;;;;;;;13.56;58.04;101677.22;5077179;27;96503;-36
2022/03/12 10:45:46;;;;;;;1.67;1.02;;;;;;;13.54;56.79;101689.19;5076408;27;101017;-37
2022/03/12 10:48:12;;;;;;;1.13;0.68;;;;;;;13.34;56.95;101676.75;5095259;27;99413;-36
2022/03/12 10:50:40;;;;;;;1.38;0.70;;;;;;;13.61;57.12;101676.97;5095665;27;96768;-36
2022/03/12 10:53:07;;;;;;;3.38;1.00;;;;;;;13.77;56.69;101680.47;5077220;27;96769;-36
2022/03/12 10:55:36;;;;;;;1.38;0.77;;;;;;;13.91;55.71;101686.91;5076717;27;100985;-36
2022/03/12 10:58:15;;;;;;;0.82;0.65;;;;;;;13.94;54.89;101684.88;5076748;27;100708;-36
2022/03/12 11:00:54;;;;;;;1.17;0.68;;;;;;;13.93;54.85;101693.16;5077035;27;96679;-36
2022/03/12 11:03:21;;;;;;;1.73;0.80;;;;;;;14.08;55.40;101683.13;5077114;27;96890;-36
2022/03/12 11:05:49;;;;;;;3.70;1.08;;;;;;;14.34;55.40;101693.25;5076534;27;100794;-36
2022/03/12 11:08:20;;;;;;;2.63;0.82;;;;;;;14.28;54.13;101680.03;5094938;27;98851;-36
2022/03/12 11:10:52;;;;;;;1.57;1.07;;;;;;;14.34;54.41;101695.09;5076382;27;96606;-36
2022/03/12 11:13:27;;;;;;;1.48;0.88;;;;;;;14.29;53.60;101683.63;5076798;27;96740;-36
2022/03/12 11:16:24;;;;;;;1.33;0.82;;;;;;;14.37;54.01;101695.81;5076267;27;101115;-36
2022/03/12 11:18:52;;;;;;;1.55;0.77;;;;;;;14.62;53.70;101686.06;5075238;27;100727;-36
2022/03/12 11:21:39;;;;;;;2.28;1.27;;;;;;;14.50;54.12;101695.00;5095370;27;96647;-35
2022/03/12 11:24:13;;;;;;;4.40;1.17;;;;;;;14.61;53.57;101700.66;5095293;27;96652;-35